createdAt,value
2017-04-03T00:00:39.777Z,53.04
2017-04-03T00:01:39.798Z,53.04
2017-04-03T00:02:39.818Z,53.62
2017-04-03T00:03:39.854Z,52.56
2017-04-03T00:04:39.871Z,53.62
2017-04-03T00:05:39.888Z,53.04
2017-04-03T00:06:39.600Z,53.14
2017-04-03T00:07:39.940Z,53.04
2017-04-03T00:08:39.953Z,53.62
2017-04-03T00:09:39.969Z,53.42
2017-04-03T00:10:39.682Z,53.52
2017-04-03T00:11:40.001Z,53.33
2017-04-03T00:12:40.020Z,53.62
2017-04-03T00:13:40.041Z,53.14
2017-04-03T00:14:40.061Z,53.52
2017-04-03T00:15:40.082Z,53.04
2017-04-03T00:16:39.789Z,53.42
2017-04-03T00:17:40.121Z,53.23
2017-04-03T00:18:40.134Z,53.62
2017-04-03T00:19:40.165Z,53.91
2017-04-03T00:20:40.176Z,53.23
2017-04-03T00:21:40.205Z,53.14
2017-04-03T00:22:40.218Z,53.71
2017-04-03T00:23:40.241Z,53.62
2017-04-03T00:24:40.370Z,53.81
2017-04-03T00:25:40.379Z,53.52
2017-04-03T00:26:40.410Z,53.42
2017-04-03T00:27:40.420Z,53.49
2017-04-03T00:28:40.027Z,53.49
2017-04-03T00:29:40.437Z,53.69
2017-04-03T00:30:40.472Z,54.07
2017-04-03T00:31:40.506Z,54.1
2017-04-03T00:32:40.525Z,54
2017-04-03T00:33:40.522Z,53.97
2017-04-03T00:34:40.521Z,53.88
2017-04-03T00:35:40.529Z,53.97
2017-04-03T00:36:40.538Z,53.97
2017-04-03T00:37:40.582Z,53.88
2017-04-03T00:38:40.557Z,53.78
2017-04-03T00:39:40.555Z,53.88
2017-04-03T00:40:40.576Z,54.07
2017-04-03T00:41:40.599Z,54.07
2017-04-03T00:42:40.632Z,53.88
2017-04-03T00:43:40.326Z,53.97
2017-04-03T00:44:40.655Z,53.97
2017-04-03T00:45:40.681Z,53.88
2017-04-03T00:46:40.700Z,54.16
2017-04-03T00:47:40.719Z,53.49
2017-04-03T00:48:40.736Z,54.55
2017-04-03T00:49:40.760Z,54.74
2017-04-03T00:50:40.779Z,54.64
2017-04-03T00:51:40.796Z,53.69
2017-04-03T00:52:40.816Z,54.55
2017-04-03T00:53:40.838Z,54.36
2017-04-03T00:54:40.858Z,54.26
2017-04-03T00:55:40.879Z,53.49
2017-04-03T00:56:40.903Z,54.36
2017-04-03T00:57:40.919Z,53.78
2017-04-03T00:58:40.936Z,54.26
2017-04-03T00:59:40.960Z,53.78
2017-04-03T01:00:40.981Z,54.26
2017-04-03T01:01:40.998Z,54.36
2017-04-03T01:02:41.022Z,54.36
2017-04-03T01:03:41.042Z,54.26
2017-04-03T01:04:41.060Z,54.45
2017-04-03T01:05:41.078Z,54.55
2017-04-03T01:06:41.103Z,54.64
2017-04-03T01:07:41.114Z,53.88
2017-04-03T01:08:41.137Z,53.78
2017-04-03T01:09:41.160Z,53.88
2017-04-03T01:10:41.181Z,54.45
2017-04-03T01:11:41.197Z,53.88
2017-04-03T01:12:41.345Z,54.26
2017-04-03T01:13:41.237Z,54.16
2017-04-03T01:14:41.259Z,54.64
2017-04-03T01:15:41.274Z,53.97
2017-04-03T01:16:41.300Z,53.88
2017-04-03T01:17:41.318Z,53.88
2017-04-03T01:18:41.337Z,54.26
2017-04-03T01:19:41.366Z,54.36
2017-04-03T01:20:41.381Z,54.26
2017-04-03T01:21:41.396Z,53.78
2017-04-03T01:22:41.419Z,54.55
2017-04-03T01:23:41.648Z,54.55
2017-04-03T01:24:41.457Z,54.55
2017-04-03T01:25:41.477Z,54.26
2017-04-03T01:26:41.495Z,54.16
2017-04-03T01:27:41.657Z,54.93
2017-04-03T01:28:41.534Z,54.83
2017-04-03T01:29:41.557Z,54.16
2017-04-03T01:30:41.577Z,54.83
2017-04-03T01:31:41.602Z,54.64
2017-04-03T01:32:41.624Z,54.64
2017-04-03T01:33:41.634Z,54.64
2017-04-03T01:34:41.689Z,54.74
2017-04-03T01:35:41.677Z,54.9
2017-04-03T01:36:41.694Z,54.71
2017-04-03T01:37:41.400Z,54.74
2017-04-03T01:38:41.735Z,54.83
2017-04-03T01:39:41.765Z,54.26
2017-04-03T01:40:41.772Z,54.93
2017-04-03T01:41:41.789Z,54.45
2017-04-03T01:42:41.819Z,54.45
2017-04-03T01:43:41.833Z,54.45
2017-04-03T01:44:41.852Z,54.93
2017-04-03T01:45:41.873Z,54.93
2017-04-03T01:46:41.902Z,54.9
2017-04-03T01:47:41.912Z,55
2017-04-03T01:48:41.929Z,54.14
2017-04-03T01:49:41.950Z,54.55
2017-04-03T01:50:42.097Z,54.61
2017-04-03T01:51:41.989Z,54.55
2017-04-03T01:52:42.008Z,54.55
2017-04-03T01:53:42.031Z,54.52
2017-04-03T01:54:42.051Z,54.43
2017-04-03T01:55:42.071Z,54.52
2017-04-03T01:56:42.086Z,54.52
2017-04-03T01:57:42.109Z,54.8
2017-04-03T01:58:42.131Z,55.1
2017-04-03T01:59:42.145Z,54.61
2017-04-03T02:00:42.196Z,55.29
2017-04-03T02:01:42.205Z,55.1
2017-04-03T02:02:42.123Z,55.29
2017-04-03T02:03:42.265Z,54.9
2017-04-03T02:04:41.943Z,55.19
2017-04-03T02:05:42.278Z,55.1
2017-04-03T02:06:42.300Z,55.19
2017-04-03T02:07:42.003Z,55.1
2017-04-03T02:08:42.023Z,55.1
2017-04-03T02:09:42.354Z,55.1
2017-04-03T02:10:42.370Z,55.1
2017-04-03T02:11:42.439Z,55
2017-04-03T02:12:42.403Z,55.1
2017-04-03T02:13:42.431Z,55.1
2017-04-03T02:14:42.448Z,55.19
2017-04-03T02:15:42.470Z,55.1
2017-04-03T02:16:42.181Z,55
2017-04-03T02:17:42.197Z,55.1
2017-04-03T02:18:42.533Z,55.29
2017-04-03T02:19:42.554Z,55.1
2017-04-03T02:20:42.570Z,55.1
2017-04-03T02:21:42.610Z,54.9
2017-04-03T02:22:42.604Z,55.67
2017-04-03T02:23:42.321Z,55.57
2017-04-03T02:24:42.643Z,55.57
2017-04-03T02:25:42.788Z,55.57
2017-04-03T02:26:42.676Z,55.57
2017-04-03T02:27:42.697Z,55.57
2017-04-03T02:28:42.944Z,55.47
2017-04-03T02:29:42.736Z,55.57
2017-04-03T02:30:42.755Z,55.19
2017-04-03T02:31:42.776Z,55.47
2017-04-03T02:32:42.796Z,55.47
2017-04-03T02:33:42.817Z,55.47
2017-04-03T02:34:42.885Z,55.57
2017-04-03T02:35:42.919Z,55
2017-04-03T02:36:42.561Z,55.38
2017-04-03T02:37:42.895Z,54.9
2017-04-03T02:38:42.956Z,55.47
2017-04-03T02:39:42.935Z,55.29
2017-04-03T02:40:42.954Z,55
2017-04-03T02:41:42.973Z,55.38
2017-04-03T02:42:42.991Z,55
2017-04-03T02:43:43.008Z,55
2017-04-03T02:44:43.039Z,55.57
2017-04-03T02:45:43.050Z,55.47
2017-04-03T02:46:43.074Z,55.19
2017-04-03T02:47:43.087Z,54.9
2017-04-03T02:48:43.106Z,55.47
2017-04-03T02:49:43.128Z,55.38
2017-04-03T02:50:43.147Z,55.38
2017-04-03T02:51:43.164Z,55.38
2017-04-03T02:52:43.188Z,55
2017-04-03T02:53:43.204Z,55.1
2017-04-03T02:54:43.224Z,55.47
2017-04-03T02:55:43.245Z,55.47
2017-04-03T02:56:43.270Z,55.19
2017-04-03T02:57:43.284Z,55.47
2017-04-03T02:58:43.303Z,55.47
2017-04-03T02:59:43.472Z,55.1
2017-04-03T03:00:43.340Z,55.64
2017-04-03T03:01:43.361Z,55.29
2017-04-03T03:02:43.378Z,55.76
2017-04-03T03:03:43.399Z,55.64
2017-04-03T03:04:43.418Z,55.64
2017-04-03T03:05:43.541Z,55.38
2017-04-03T03:06:43.581Z,55.54
2017-04-03T03:07:43.568Z,55.57
2017-04-03T03:08:43.181Z,55.93
2017-04-03T03:09:43.520Z,55.83
2017-04-03T03:10:43.548Z,55.45
2017-04-03T03:11:43.572Z,55.93
2017-04-03T03:12:43.588Z,55.35
2017-04-03T03:13:43.645Z,55.45
2017-04-03T03:14:43.308Z,55.93
2017-04-03T03:15:43.651Z,55.45
2017-04-03T03:16:43.676Z,55.45
2017-04-03T03:17:43.673Z,55.83
2017-04-03T03:18:43.694Z,56.12
2017-04-03T03:19:43.725Z,55.74
2017-04-03T03:20:43.428Z,55.64
2017-04-03T03:21:43.760Z,55.74
2017-04-03T03:22:43.473Z,55.54
2017-04-03T03:23:43.486Z,55.64
2017-04-03T03:24:43.501Z,55.83
2017-04-03T03:25:43.524Z,56.02
2017-04-03T03:26:43.973Z,55.83
2017-04-03T03:27:43.895Z,55.83
2017-04-03T03:28:43.883Z,55.93
2017-04-03T03:29:43.900Z,56.21
2017-04-03T03:30:43.915Z,56.12
2017-04-03T03:31:43.941Z,56.21
2017-04-03T03:32:43.958Z,56.12
2017-04-03T03:33:43.977Z,56.21
2017-04-03T03:34:43.999Z,55.93
2017-04-03T03:35:43.702Z,55.83
2017-04-03T03:36:44.036Z,56.02
2017-04-03T03:37:44.096Z,55.9
2017-04-03T03:38:44.077Z,56.4
2017-04-03T03:39:44.093Z,56.02
2017-04-03T03:40:44.115Z,56.21
2017-04-03T03:41:44.129Z,56.21
2017-04-03T03:42:44.151Z,56.18
2017-04-03T03:43:43.856Z,56.09
2017-04-03T03:44:43.877Z,55.99
2017-04-03T03:45:44.207Z,55.99
2017-04-03T03:46:44.227Z,56.28
2017-04-03T03:47:44.246Z,56.76
2017-04-03T03:48:44.262Z,56.85
2017-04-03T03:49:44.284Z,56.95
2017-04-03T03:50:44.552Z,56.85
2017-04-03T03:51:44.463Z,57.04
2017-04-03T03:52:44.448Z,57.04
2017-04-03T03:53:44.364Z,56.95
2017-04-03T03:54:44.110Z,56.95
2017-04-03T03:55:44.409Z,56.38
2017-04-03T03:56:44.318Z,56.38
2017-04-03T03:57:44.433Z,56.18
2017-04-03T03:58:44.497Z,56.47
2017-04-03T03:59:44.472Z,56.57
2017-04-03T04:00:44.631Z,56.47
2017-04-03T04:01:44.511Z,56.57
2017-04-03T04:02:44.285Z,56.28
2017-04-03T04:03:44.550Z,56.28
2017-04-03T04:04:44.569Z,56.76
2017-04-03T04:05:44.589Z,56.47
2017-04-03T04:06:44.613Z,56.38
2017-04-03T04:07:44.769Z,56.38
2017-04-03T04:08:44.646Z,56.38
2017-04-03T04:09:44.660Z,56.57
2017-04-03T04:10:44.717Z,56.47
2017-04-03T04:11:44.716Z,57.14
2017-04-03T04:12:44.722Z,56.67
2017-04-03T04:13:44.737Z,56.76
2017-04-03T04:14:44.755Z,56.85
2017-04-03T04:15:44.778Z,56.67
2017-04-03T04:16:44.795Z,56.95
2017-04-03T04:17:44.813Z,56.57
2017-04-03T04:18:44.833Z,56.57
2017-04-03T04:19:44.852Z,57.33
2017-04-03T04:20:44.871Z,56.47
2017-04-03T04:21:44.890Z,57.14
2017-04-03T04:22:44.909Z,56.47
2017-04-03T04:23:44.926Z,56.57
2017-04-03T04:24:44.947Z,56.95
2017-04-03T04:25:44.967Z,56.76
2017-04-03T04:26:44.986Z,56.85
2017-04-03T04:27:45.002Z,56.95
2017-04-03T04:28:45.022Z,57.04
2017-04-03T04:29:45.039Z,56.92
2017-04-03T04:30:45.102Z,56.82
2017-04-03T04:31:45.077Z,57.02
2017-04-03T04:32:44.782Z,57.11
2017-04-03T04:33:45.116Z,57.14
2017-04-03T04:34:45.135Z,57.02
2017-04-03T04:35:45.152Z,57.11
2017-04-03T04:36:45.168Z,57.11
2017-04-03T04:37:45.189Z,57.21
2017-04-03T04:38:45.207Z,57.11
2017-04-03T04:39:45.350Z,57.21
2017-04-03T04:40:45.244Z,57.21
2017-04-03T04:41:45.264Z,57.21
2017-04-03T04:42:45.284Z,57.21
2017-04-03T04:43:45.301Z,57.4
2017-04-03T04:44:45.442Z,57.02
2017-04-03T04:45:45.340Z,57.02
2017-04-03T04:46:45.359Z,57.21
2017-04-03T04:47:45.379Z,57.5
2017-04-03T04:48:45.391Z,57.11
2017-04-03T04:49:45.416Z,57.31
2017-04-03T04:50:45.554Z,57.21
2017-04-03T04:51:45.450Z,57.11
2017-04-03T04:52:45.593Z,57.59
2017-04-03T04:53:45.492Z,57.11
2017-04-03T04:54:45.504Z,57.21
2017-04-03T04:55:45.524Z,57.59
2017-04-03T04:56:45.668Z,57.11
2017-04-03T04:57:45.692Z,57.5
2017-04-03T04:58:45.582Z,57.02
2017-04-03T04:59:45.396Z,57.21
2017-04-03T05:00:45.623Z,57.59
2017-04-03T05:01:45.325Z,57.11
2017-04-03T05:02:45.655Z,57.21
2017-04-03T05:03:45.800Z,57.11
2017-04-03T05:04:45.699Z,57.21
2017-04-03T05:05:45.710Z,57.4
2017-04-03T05:06:45.722Z,57.21
2017-04-03T05:07:45.742Z,57.21
2017-04-03T05:08:45.765Z,57.11
2017-04-03T05:09:45.783Z,57.31
2017-04-03T05:10:45.800Z,57.59
2017-04-03T05:11:45.819Z,57.5
2017-04-03T05:12:45.841Z,57.78
2017-04-03T05:13:45.553Z,57.78
2017-04-03T05:14:45.896Z,57.87
2017-04-03T05:15:45.897Z,57.97
2017-04-03T05:16:45.910Z,57.78
2017-04-03T05:17:45.930Z,57.59
2017-04-03T05:18:45.634Z,57.59
2017-04-03T05:19:45.967Z,57.68
2017-04-03T05:20:45.985Z,57.78
2017-04-03T05:21:46.003Z,57.68
2017-04-03T05:22:46.019Z,57.87
2017-04-03T05:23:46.042Z,57.87
2017-04-03T05:24:46.061Z,58.16
2017-04-03T05:25:46.074Z,58.16
2017-04-03T05:26:46.093Z,58.26
2017-04-03T05:27:46.115Z,57.97
2017-04-03T05:28:46.130Z,58.23
2017-04-03T05:29:46.150Z,58.14
2017-04-03T05:30:46.166Z,58.16
2017-04-03T05:31:46.187Z,57.78
2017-04-03T05:32:46.207Z,57.87
2017-04-03T05:33:46.225Z,57.85
2017-04-03T05:34:46.241Z,58.16
2017-04-03T05:35:46.261Z,58.14
2017-04-03T05:36:46.277Z,57.94
2017-04-03T05:37:46.296Z,57.97
2017-04-03T05:38:46.318Z,57.87
2017-04-03T05:39:46.333Z,58.07
2017-04-03T05:40:46.350Z,57.65
2017-04-03T05:41:46.371Z,57.87
2017-04-03T05:42:46.386Z,58.26
2017-04-03T05:43:46.407Z,58.07
2017-04-03T05:44:46.427Z,58.16
2017-04-03T05:45:46.444Z,58.07
2017-04-03T05:46:46.463Z,58.07
2017-04-03T05:47:46.479Z,58.04
2017-04-03T05:48:46.503Z,58.07
2017-04-03T05:49:46.519Z,58.04
2017-04-03T05:50:46.533Z,58.07
2017-04-03T05:51:46.552Z,58.42
2017-04-03T05:52:46.570Z,58.45
2017-04-03T05:53:46.591Z,58.23
2017-04-03T05:54:46.608Z,58.26
2017-04-03T05:55:46.626Z,58.07
2017-04-03T05:56:46.654Z,58.45
2017-04-03T05:57:46.685Z,57.78
2017-04-03T05:58:46.680Z,58.42
2017-04-03T05:59:46.698Z,58.16
2017-04-03T06:00:46.761Z,58.04
2017-04-03T06:01:46.733Z,59.02
2017-04-03T06:02:46.752Z,58.61
2017-04-03T06:03:46.772Z,58.99
2017-04-03T06:04:46.788Z,58.73
2017-04-03T06:05:46.809Z,58.64
2017-04-03T06:06:46.828Z,58.73
2017-04-03T06:07:46.854Z,58.64
2017-04-03T06:08:46.861Z,58.7
2017-04-03T06:09:46.877Z,58.7
2017-04-03T06:10:46.941Z,58.04
2017-04-03T06:11:46.912Z,58.33
2017-04-03T06:12:46.937Z,58.04
2017-04-03T06:13:46.954Z,58.14
2017-04-03T06:14:46.660Z,58.07
2017-04-03T06:15:47.116Z,58.07
2017-04-03T06:16:47.032Z,58.07
2017-04-03T06:17:47.027Z,57.85
2017-04-03T06:18:47.123Z,58.54
2017-04-03T06:19:47.070Z,58.26
2017-04-03T06:20:47.082Z,58.54
2017-04-03T06:21:47.097Z,58.45
2017-04-03T06:22:47.118Z,58.16
2017-04-03T06:23:47.138Z,57.97
2017-04-03T06:24:47.153Z,58.54
2017-04-03T06:25:47.171Z,58.04
2017-04-03T06:26:47.189Z,58.42
2017-04-03T06:27:47.213Z,58.54
2017-04-03T06:28:47.228Z,58.51
2017-04-03T06:29:47.243Z,57.94
2017-04-03T06:30:47.260Z,58.16
2017-04-03T06:31:47.283Z,58.45
2017-04-03T06:32:47.302Z,57.75
2017-04-03T06:33:47.315Z,58.36
2017-04-03T06:34:47.331Z,58.73
2017-04-03T06:35:47.355Z,58.73
2017-04-03T06:36:47.373Z,58.93
2017-04-03T06:37:47.388Z,58.83
2017-04-03T06:38:47.407Z,58.26
2017-04-03T06:39:47.424Z,59.12
2017-04-03T06:40:47.443Z,58.54
2017-04-03T06:41:47.466Z,58.45
2017-04-03T06:42:47.477Z,58.26
2017-04-03T06:43:47.498Z,58.45
2017-04-03T06:44:47.517Z,58.16
2017-04-03T06:45:47.530Z,58.07
2017-04-03T06:46:47.554Z,58.07
2017-04-03T06:47:47.569Z,57.97
2017-04-03T06:48:47.588Z,58.07
2017-04-03T06:49:47.609Z,57.87
2017-04-03T06:50:47.626Z,58.07
2017-04-03T06:51:47.648Z,58.07
2017-04-03T06:52:47.666Z,57.97
2017-04-03T06:53:47.680Z,57.87
2017-04-03T06:54:47.731Z,57.97
2017-04-03T06:55:47.716Z,57.9
2017-04-03T06:56:47.529Z,58.19
2017-04-03T06:57:47.444Z,58.19
2017-04-03T06:58:47.791Z,57.71
2017-04-03T06:59:47.787Z,57.9
2017-04-03T07:00:47.816Z,58
2017-04-03T07:01:47.825Z,57.71
2017-04-03T07:02:47.845Z,57.53
2017-04-03T07:03:47.864Z,57.43
2017-04-03T07:04:47.878Z,57.43
2017-04-03T07:05:47.901Z,57.43
2017-04-03T07:06:47.915Z,57.53
2017-04-03T07:07:47.938Z,57.14
2017-04-03T07:08:47.952Z,56.95
2017-04-03T07:09:47.972Z,57.33
2017-04-03T07:10:47.989Z,57.14
2017-04-03T07:11:48.013Z,57.62
2017-04-03T07:12:48.025Z,57.53
2017-04-03T07:13:48.042Z,57.33
2017-04-03T07:14:48.062Z,57.24
2017-04-03T07:15:48.257Z,57.33
2017-04-03T07:16:48.147Z,57.14
2017-04-03T07:17:48.246Z,57.43
2017-04-03T07:18:48.136Z,57.62
2017-04-03T07:19:48.149Z,57.81
2017-04-03T07:20:48.205Z,58
2017-04-03T07:21:48.206Z,57.71
2017-04-03T07:22:48.208Z,58
2017-04-03T07:23:48.228Z,58.03
2017-04-03T07:24:48.244Z,58.7
2017-04-03T07:25:48.263Z,57.93
2017-04-03T07:26:48.294Z,57.93
2017-04-03T07:27:48.298Z,58.22
2017-04-03T07:28:48.315Z,57.84
2017-04-03T07:29:48.338Z,57.65
2017-04-03T07:30:48.355Z,57.46
2017-04-03T07:31:48.373Z,57.65
2017-04-03T07:32:48.390Z,57.46
2017-04-03T07:33:48.410Z,57.55
2017-04-03T07:34:48.117Z,57.46
2017-04-03T07:35:48.448Z,57.46
2017-04-03T07:36:48.472Z,57.55
2017-04-03T07:37:48.481Z,57.55
2017-04-03T07:38:48.511Z,57.93
2017-04-03T07:39:48.524Z,58.03
2017-04-03T07:40:48.540Z,58.22
2017-04-03T07:41:48.560Z,58.12
2017-04-03T07:42:48.576Z,58.34
2017-04-03T07:43:48.597Z,57.68
2017-04-03T07:44:48.614Z,57.77
2017-04-03T07:45:48.637Z,57.58
2017-04-03T07:46:48.673Z,57.77
2017-04-03T07:47:48.672Z,57.77
2017-04-03T07:48:48.690Z,57.97
2017-04-03T07:49:48.707Z,57.87
2017-04-03T07:50:48.726Z,57.77
2017-04-03T07:51:48.742Z,57.2
2017-04-03T07:52:48.766Z,57.29
2017-04-03T07:53:48.783Z,56.72
2017-04-03T07:54:48.802Z,56.34
2017-04-03T07:55:48.816Z,56.53
2017-04-03T07:56:48.838Z,55.86
2017-04-03T07:57:48.857Z,56.05
2017-04-03T07:58:48.874Z,55.47
2017-04-03T07:59:48.893Z,55.86
2017-04-03T08:00:48.911Z,55.96
2017-04-03T08:01:48.934Z,55.96
2017-04-03T08:02:48.949Z,55.57
2017-04-03T08:03:48.970Z,55.86
2017-04-03T08:04:48.985Z,55.47
2017-04-03T08:05:49.007Z,55.67
2017-04-03T08:06:49.024Z,55.96
2017-04-03T08:07:49.044Z,55.47
2017-04-03T08:08:49.061Z,55.96
2017-04-03T08:09:49.086Z,55.57
2017-04-03T08:10:49.101Z,56.15
2017-04-03T08:11:49.116Z,56.34
2017-04-03T08:12:49.140Z,56.15
2017-04-03T08:13:49.195Z,56.34
2017-04-03T08:14:49.178Z,55.96
2017-04-03T08:15:49.197Z,56.43
2017-04-03T08:16:49.217Z,56.15
2017-04-03T08:17:49.250Z,56.43
2017-04-03T08:18:49.251Z,55.67
2017-04-03T08:19:49.267Z,55.96
2017-04-03T08:20:49.294Z,55.86
2017-04-03T08:21:49.315Z,55.96
2017-04-03T08:22:49.328Z,55.76
2017-04-03T08:23:49.351Z,55.96
2017-04-03T08:24:49.374Z,56.91
2017-04-03T08:25:49.382Z,56.05
2017-04-03T08:26:49.402Z,56.08
2017-04-03T08:27:49.426Z,55.88
2017-04-03T08:28:49.443Z,56.08
2017-04-03T08:29:49.507Z,56.17
2017-04-03T08:30:49.480Z,56.08
2017-04-03T08:31:49.498Z,56.27
2017-04-03T08:32:49.519Z,56.46
2017-04-03T08:33:49.538Z,55.6
2017-04-03T08:34:49.553Z,55.98
2017-04-03T08:35:49.574Z,56.37
2017-04-03T08:36:49.622Z,55.88
2017-04-03T08:37:49.612Z,55.98
2017-04-03T08:38:49.632Z,55.51
2017-04-03T08:39:49.651Z,55.79
2017-04-03T08:40:49.672Z,55.22
2017-04-03T08:41:49.696Z,55.31
2017-04-03T08:42:49.755Z,55.02
2017-04-03T08:43:49.730Z,55.88
2017-04-03T08:44:49.756Z,55.51
2017-04-03T08:45:49.771Z,55.6
2017-04-03T08:46:49.791Z,55.51
2017-04-03T08:47:49.930Z,55.22
2017-04-03T08:48:49.826Z,55.79
2017-04-03T08:49:49.846Z,55.51
2017-04-03T08:50:49.868Z,55.6
2017-04-03T08:51:49.882Z,55.79
2017-04-03T08:52:49.901Z,55.02
2017-04-03T08:53:49.922Z,54.93
2017-04-03T08:54:49.939Z,55.22
2017-04-03T08:55:49.961Z,54.83
2017-04-03T08:56:49.980Z,55.51
2017-04-03T08:57:50.001Z,55.51
2017-04-03T08:58:50.023Z,55.02
2017-04-03T08:59:50.038Z,55.31
2017-04-03T09:00:50.064Z,55.41
2017-04-03T09:01:50.080Z,55.79
2017-04-03T09:02:50.098Z,55.22
2017-04-03T09:03:50.112Z,55.31
2017-04-03T09:04:50.134Z,55.88
2017-04-03T09:05:50.155Z,55.31
2017-04-03T09:06:50.175Z,55.88
2017-04-03T09:07:50.197Z,55.79
2017-04-03T09:08:50.213Z,55.79
2017-04-03T09:09:50.235Z,55.31
2017-04-03T09:10:50.251Z,55.6
2017-04-03T09:11:50.270Z,55.79
2017-04-03T09:12:50.291Z,55.31
2017-04-03T09:13:50.308Z,55.6
2017-04-03T09:14:50.330Z,55.41
2017-04-03T09:15:50.350Z,55.41
2017-04-03T09:16:50.369Z,55.51
2017-04-03T09:17:50.387Z,54.83
2017-04-03T09:18:50.407Z,55.02
2017-04-03T09:19:50.432Z,55.6
2017-04-03T09:20:50.135Z,55.6
2017-04-03T09:21:50.471Z,55.6
2017-04-03T09:22:50.489Z,54.93
2017-04-03T09:23:50.503Z,54.83
2017-04-03T09:24:50.525Z,55.51
2017-04-03T09:25:50.229Z,55.02
2017-04-03T09:26:50.566Z,55.22
2017-04-03T09:27:50.585Z,55.31
2017-04-03T09:28:50.298Z,55.22
2017-04-03T09:29:50.625Z,55.12
2017-04-03T09:30:50.330Z,55.31
2017-04-03T09:31:50.658Z,55.69
2017-04-03T09:32:50.678Z,55.22
2017-04-03T09:33:50.741Z,55.41
2017-04-03T09:34:50.717Z,55.41
2017-04-03T09:35:50.738Z,55.51
2017-04-03T09:36:50.757Z,55.51
2017-04-03T09:37:50.777Z,55.02
2017-04-03T09:38:50.798Z,55.02
2017-04-03T09:39:50.818Z,54.93
2017-04-03T09:40:50.836Z,55.41
2017-04-03T09:41:50.853Z,55.12
2017-04-03T09:42:50.879Z,55.22
2017-04-03T09:43:50.893Z,54.67
2017-04-03T09:44:50.915Z,53.97
2017-04-03T09:45:50.939Z,54.55
2017-04-03T09:46:50.955Z,54.07
2017-04-03T09:47:50.972Z,54.45
2017-04-03T09:48:50.995Z,54.55
2017-04-03T09:49:51.019Z,54.93
2017-04-03T09:50:50.722Z,55.12
2017-04-03T09:51:51.053Z,55.02
2017-04-03T09:52:51.070Z,55.12
2017-04-03T09:53:51.092Z,54.96
2017-04-03T09:54:51.107Z,55.51
2017-04-03T09:55:51.127Z,55.12
2017-04-03T09:56:51.146Z,55.15
2017-04-03T09:57:51.171Z,54.19
2017-04-03T09:58:51.185Z,54.57
2017-04-03T09:59:51.210Z,54.67
2017-04-03T10:00:51.230Z,54.48
2017-04-03T10:01:51.246Z,54.67
2017-04-03T10:02:51.266Z,54.67
2017-04-03T10:03:51.289Z,54
2017-04-03T10:04:51.305Z,54.86
2017-04-03T10:05:51.374Z,53.81
2017-04-03T10:06:51.343Z,54.19
2017-04-03T10:07:51.365Z,54.67
2017-04-03T10:08:51.385Z,54
2017-04-03T10:09:51.406Z,54
2017-04-03T10:10:51.434Z,54.48
2017-04-03T10:11:51.445Z,54.48
2017-04-03T10:12:51.462Z,53.91
2017-04-03T10:13:51.483Z,53.52
2017-04-03T10:14:51.503Z,54.67
2017-04-03T10:15:51.523Z,54.57
2017-04-03T10:16:51.543Z,53.91
2017-04-03T10:17:51.562Z,54.19
2017-04-03T10:18:51.590Z,54.57
2017-04-03T10:19:51.599Z,53.91
2017-04-03T10:20:51.623Z,53.52
2017-04-03T10:21:51.644Z,53.52
2017-04-03T10:22:51.661Z,53.62
2017-04-03T10:23:51.685Z,53.42
2017-04-03T10:24:51.702Z,53.62
2017-04-03T10:25:51.720Z,53.62
2017-04-03T10:26:51.740Z,53.71
2017-04-03T10:27:51.765Z,53.91
2017-04-03T10:28:51.780Z,53.33
2017-04-03T10:29:51.801Z,53.71
2017-04-03T10:30:51.824Z,53.23
2017-04-03T10:31:51.846Z,53.71
2017-04-03T10:32:51.857Z,54
2017-04-03T10:33:51.879Z,53.81
2017-04-03T10:34:51.896Z,53.62
2017-04-03T10:35:51.921Z,54.28
2017-04-03T10:36:51.938Z,54.48
2017-04-03T10:37:51.960Z,53.81
2017-04-03T10:38:51.981Z,54.38
2017-04-03T10:39:51.998Z,54.28
2017-04-03T10:40:52.027Z,54.57
2017-04-03T10:41:52.052Z,54
2017-04-03T10:42:52.070Z,54.28
2017-04-03T10:43:52.092Z,54.1
2017-04-03T10:44:52.109Z,53.23
2017-04-03T10:45:52.125Z,53.23
2017-04-03T10:46:52.151Z,53.71
2017-04-03T10:47:52.159Z,53.14
2017-04-03T10:48:52.177Z,53.14
2017-04-03T10:49:52.195Z,53.52
2017-04-03T10:50:52.217Z,52.75
2017-04-03T10:51:52.252Z,53.04
2017-04-03T10:52:52.256Z,53.71
2017-04-03T10:53:52.296Z,53.04
2017-04-03T10:54:52.295Z,53.52
2017-04-03T10:55:52.004Z,53.71
2017-04-03T10:56:52.031Z,53.62
2017-04-03T10:57:52.352Z,53.91
2017-04-03T10:58:52.377Z,53.91
2017-04-03T10:59:52.394Z,54.1
2017-04-03T11:00:52.414Z,53.91
2017-04-03T11:01:52.434Z,54.1
2017-04-03T11:02:52.453Z,53.91
2017-04-03T11:03:52.476Z,53.91
2017-04-03T11:04:52.492Z,53.42
2017-04-03T11:05:52.515Z,54
2017-04-03T11:06:52.534Z,53.91
2017-04-03T11:07:52.553Z,54.19
2017-04-03T11:08:52.576Z,54.67
2017-04-03T11:09:52.286Z,54.67
2017-04-03T11:10:52.611Z,53.71
2017-04-03T11:11:52.636Z,53.71
2017-04-03T11:12:52.653Z,54.67
2017-04-03T11:13:52.675Z,54.38
2017-04-03T11:14:52.398Z,54.19
2017-04-03T11:15:52.721Z,54.38
2017-04-03T11:16:52.730Z,54.38
2017-04-03T11:17:52.755Z,54.38
2017-04-03T11:18:52.772Z,54.67
2017-04-03T11:19:52.793Z,54.19
2017-04-03T11:20:52.815Z,53.52
2017-04-03T11:21:52.830Z,53.52
2017-04-03T11:22:52.851Z,53.52
2017-04-03T11:23:52.877Z,53.71
2017-04-03T11:24:52.940Z,53.33
2017-04-03T11:25:52.910Z,53.71
2017-04-03T11:26:52.933Z,53.42
2017-04-03T11:27:52.951Z,53.14
2017-04-03T11:28:52.974Z,53.23
2017-04-03T11:29:52.828Z,54
2017-04-03T11:30:53.015Z,54.19
2017-04-03T11:31:53.030Z,54.1
2017-04-03T11:32:53.049Z,54
2017-04-03T11:33:52.758Z,53.81
2017-04-03T11:34:53.093Z,53.91
2017-04-03T11:35:53.111Z,53.91
2017-04-03T11:36:53.139Z,54.55
2017-04-03T11:37:53.147Z,54.55
2017-04-03T11:38:53.167Z,54.16
2017-04-03T11:39:53.188Z,54.26
2017-04-03T11:40:53.212Z,53.88
2017-04-03T11:41:53.226Z,54.16
2017-04-03T11:42:53.249Z,54.16
2017-04-03T11:43:53.272Z,54.55
2017-04-03T11:44:53.290Z,54.36
2017-04-03T11:45:53.310Z,53.88
2017-04-03T11:46:53.328Z,54.36
2017-04-03T11:47:53.349Z,53.69
2017-04-03T11:48:53.364Z,54.38
2017-04-03T11:49:53.390Z,54.38
2017-04-03T11:50:53.489Z,54.67
2017-04-03T11:51:53.426Z,54.26
2017-04-03T11:52:53.442Z,54.28
2017-04-03T11:53:53.468Z,54.19
2017-04-03T11:54:53.487Z,54.38
2017-04-03T11:55:53.516Z,53.81
2017-04-03T11:56:53.532Z,53.91
2017-04-03T11:57:53.549Z,54.1
2017-04-03T11:58:53.565Z,54.1
2017-04-03T11:59:53.589Z,54.38
2017-04-03T12:00:53.608Z,54.28
2017-04-03T12:01:53.628Z,54.19
2017-04-03T12:02:53.645Z,54.19
2017-04-03T12:03:53.662Z,53.71
2017-04-03T12:04:53.685Z,54.38
2017-04-03T12:05:53.703Z,53.81
2017-04-03T12:06:53.727Z,53.71
2017-04-03T12:07:53.754Z,53.52
2017-04-03T12:08:53.766Z,53.62
2017-04-03T12:09:53.784Z,54.28
2017-04-03T12:10:53.806Z,53.52
2017-04-03T12:11:53.825Z,54.38
2017-04-03T12:12:53.843Z,53.91
2017-04-03T12:13:53.863Z,54.19
2017-04-03T12:14:53.882Z,53.52
2017-04-03T12:15:53.907Z,53.71
2017-04-03T12:16:53.925Z,54.57
2017-04-03T12:17:53.946Z,54.1
2017-04-03T12:18:53.649Z,53.42
2017-04-03T12:19:53.984Z,53.78
2017-04-03T12:20:54.044Z,54
2017-04-03T12:21:54.021Z,53.91
2017-04-03T12:22:54.040Z,54.07
2017-04-03T12:23:54.063Z,53.97
2017-04-03T12:24:54.080Z,53.81
2017-04-03T12:25:54.099Z,54
2017-04-03T12:26:53.808Z,53.71
2017-04-03T12:27:54.140Z,54.19
2017-04-03T12:28:54.157Z,54.19
2017-04-03T12:29:54.179Z,53.91
2017-04-03T12:30:54.199Z,53.23
2017-04-03T12:31:54.219Z,53.14
2017-04-03T12:32:54.241Z,53.62
2017-04-03T12:33:54.258Z,52.75
2017-04-03T12:34:54.281Z,52.75
2017-04-03T12:35:54.298Z,52.85
2017-04-03T12:36:54.319Z,53.23
2017-04-03T12:37:54.336Z,52.85
2017-04-03T12:38:54.359Z,52.95
2017-04-03T12:39:54.376Z,52.95
2017-04-03T12:40:54.401Z,52.95
2017-04-03T12:41:54.107Z,52.85
2017-04-03T12:42:54.434Z,53.14
2017-04-03T12:43:54.467Z,52.95
2017-04-03T12:44:54.487Z,52.47
2017-04-03T12:45:54.499Z,52.56
2017-04-03T12:46:54.529Z,52.37
2017-04-03T12:47:54.546Z,52.66
2017-04-03T12:48:54.579Z,52.47
2017-04-03T12:49:54.594Z,52.78
2017-04-03T12:50:54.597Z,52.28
2017-04-03T12:51:54.620Z,52.18
2017-04-03T12:52:54.327Z,52.37
2017-04-03T12:53:54.657Z,52.09
2017-04-03T12:54:54.679Z,52.56
2017-04-03T12:55:54.713Z,52.2
2017-04-03T12:56:54.725Z,52.75